LPFRGMTT

Guest
Details From LPFR - Faro
To GMTT - IBN BATOUTA
Flight Number -
Tags decoded
Created
Modified
Stats Distance 126 nm / 233 km
Max Altitude 0 ft / 0 m
Waypoints 2
Social Downloads 0
Likes 0
Share VATSIM

Download

Looking for another format? Having issues loading an existing format? Contact us
Advertisement - Login to hide

Notes

Requested: LPFR GMTT

Route

LPFR GMTT

ID Type Via Altitude Latitude Longitude Leg Dist Tot Dist Heading (true) Name
O LPFR APT - 0 ft / 0 m 37.01534˚ -7.97233˚ - 0 nm - Faro
O GMTT APT - 0 ft / 0 m 35.72691˚ -5.91690˚ 125 nm 125 nm 127° / 129° IBN BATOUTA

Altitude Profile

Advertisement - Login to hide

LPFR

Details ICAO LPFR (FAO)
Name Faro
Region Portugal
Timezone Europe/Lisbon (UTC+0.0)
Stats Elevation 24 ft / 7 m (AMSL)
Location 37.015336° -7.972327°
Runways 1
Magnetic Variation 1.936° W

METAR

LPFR 130930Z 03004KT 350V060 CAVOK 11/04 Q1029

Decode

TAF

TAF LPFR 130500Z 1306/1406 02005KT CAVOK BECMG 1310/1312 09010KT BECMG 1316/1318 03005KT 9999 SCT035

Decode

Departure Runways

ID Width Length Bearing (true) Bearing (mag) Surface Threshold Offset Overrun Length
10 148 ft / 45 m 8,148 ft / 2,484 m 100.08° 102.02° Asphalt 148 ft / 45 m 0 ft / 0 m
28 148 ft / 45 m 8,148 ft / 2,484 m 280.10° 282.04° Asphalt 148 ft / 45 m 0 ft / 0 m

GMTT

Details ICAO GMTT (TNG)
Name IBN BATOUTA
Region Morocco
Timezone Africa/Casablanca (UTC+0.0)
Stats Elevation 62 ft / 19 m (AMSL)
Location 35.726911° -5.916900°
Runways 2
Magnetic Variation 1.290° W

METAR

GMTT 130930Z 13006KT 6000 FEW013 11/08 Q1028 NOSIG

Decode

TAF

TAF GMTT 130500Z 1306/1412 10004KT 6000 SCT015 BECMG 1309/1312 10015KT

Decode

Destination Runways

ID Width Length Bearing (true) Bearing (mag) Surface Threshold Offset Overrun Length
07 98 ft / 30 m 6,555 ft / 1,998 m 69.91° 71.20° Asphalt 0 ft / 0 m 0 ft / 0 m
10 148 ft / 45 m 11,465 ft / 3,495 m 96.01° 97.30° Asphalt 0 ft / 0 m 197 ft / 60 m
25 98 ft / 30 m 6,555 ft / 1,998 m 249.92° 251.21° Asphalt 0 ft / 0 m 0 ft / 0 m
28 148 ft / 45 m 11,465 ft / 3,495 m 276.03° 277.32° Asphalt 1,640 ft / 500 m 197 ft / 60 m

Approach Navaids

Runway Type Ident Frequency Range Bearing (true) Bearing (mag) Slope Elevation
28 Localiser TAG 109.30 MHz 18 nm / 33 km 276.22° 277.51° - 62 ft / 19 m (AMSL)
28 Glidescope TAG 109.30 MHz 10 nm / 19 km 276.02° 277.31° 2.99° 52 ft / 16 m (AMSL)

Popular Alternatives